Time;durP1;ratioP1;P1;durP2;ratioP2;P2;SDS_P1;SDS_P2;PMS_P1;PMS_P2;Temp;Humidity;BMP_temperature;BMP_pressure;BME280_temperature;BME280_humidity;BME280_pressure;Samples;Min_cycle;Max_cycle;Signal;HPM_P1;HPM_P2
2022/08/30 00:01:26;;;;;;;3.00;2.30;;;16.70;99.80;;;;;;5032992;28;20504;-75
2022/08/30 00:03:57;;;;;;;3.87;2.60;;;16.70;99.90;;;;;;5033206;28;20437;-76
2022/08/30 00:06:27;;;;;;;5.17;2.60;;;16.60;99.90;;;;;;5033302;28;20389;-75
2022/08/30 00:08:57;;;;;;;3.50;2.50;;;16.60;99.90;;;;;;5033129;28;20561;-76
2022/08/30 00:11:27;;;;;;;3.27;2.50;;;16.60;99.90;;;;;;5033183;28;20902;-76
2022/08/30 00:13:57;;;;;;;5.60;2.70;;;16.60;99.90;;;;;;5032870;28;20419;-75
2022/08/30 00:16:25;;;;;;;3.20;2.40;;;16.50;99.90;;;;;;5031644;28;20867;-75
2022/08/30 00:18:54;;;;;;;3.47;2.40;;;16.50;99.90;;;;;;5031570;28;20815;-74
2022/08/30 00:21:23;;;;;;;4.37;2.70;;;16.50;99.90;;;;;;5035637;28;20442;-75
2022/08/30 00:23:51;;;;;;;4.00;3.07;;;16.40;99.90;;;;;;5035265;28;20447;-75
2022/08/30 00:26:20;;;;;;;4.03;3.10;;;16.40;99.90;;;;;;5036547;28;20413;-75
2022/08/30 00:28:48;;;;;;;6.37;3.13;;;16.40;99.90;;;;;;5036545;28;20463;-76
2022/08/30 00:31:17;;;;;;;4.23;2.80;;;16.30;99.90;;;;;;5036831;28;20413;-75
2022/08/30 00:33:45;;;;;;;4.97;3.30;;;16.30;99.90;;;;;;5036697;28;20418;-76
2022/08/30 00:36:14;;;;;;;3.70;2.83;;;16.30;99.90;;;;;;5036412;28;20427;-75
2022/08/30 00:38:42;;;;;;;5.00;2.83;;;16.20;99.90;;;;;;5035086;28;20839;-75
2022/08/30 00:41:10;;;;;;;4.13;2.47;;;16.20;99.90;;;;;;5036384;28;20448;-75
2022/08/30 00:43:40;;;;;;;3.43;3.13;;;16.20;99.90;;;;;;5036278;28;20433;-75
2022/08/30 00:46:09;;;;;;;4.23;2.83;;;16.10;99.90;;;;;;5036131;28;20508;-75
2022/08/30 00:48:40;;;;;;;4.27;2.80;;;16.10;99.90;;;;;;5035053;28;20445;-76
2022/08/30 00:51:12;;;;;;;3.83;3.00;;;16.10;99.90;;;;;;5036458;28;20775;-74
2022/08/30 00:53:45;;;;;;;3.20;2.67;;;16.00;99.90;;;;;;5034784;28;20899;-75
2022/08/30 00:56:13;;;;;;;3.30;2.37;;;16.00;99.90;;;;;;5036654;28;20477;-75
2022/08/30 00:58:47;;;;;;;3.50;3.17;;;16.00;99.90;;;;;;5034641;28;20438;-75
2022/08/30 01:01:15;;;;;;;3.10;2.50;;;15.90;99.90;;;;;;5034786;28;20443;-74
2022/08/30 01:03:45;;;;;;;4.23;2.80;;;15.90;99.90;;;;;;5036303;28;20413;-75
2022/08/30 01:06:14;;;;;;;4.00;2.80;;;15.80;99.90;;;;;;5035801;28;20544;-74
2022/08/30 01:08:43;;;;;;;4.33;3.17;;;15.80;99.90;;;;;;5035746;28;20429;-75
2022/08/30 01:11:13;;;;;;;5.40;3.17;;;15.80;99.90;;;;;;5036339;28;20442;-75
2022/08/30 01:13:43;;;;;;;4.30;2.87;;;15.80;99.90;;;;;;5035614;28;20903;-75
2022/08/30 01:16:11;;;;;;;6.80;3.33;;;15.70;99.90;;;;;;5035684;28;20420;-76
2022/08/30 01:18:39;;;;;;;4.60;3.03;;;15.70;99.90;;;;;;5035757;28;20465;-75
2022/08/30 01:21:16;;;;;;;3.10;2.40;;;15.70;99.90;;;;;;5035816;28;20466;-75
2022/08/30 01:23:49;;;;;;;4.80;2.53;;;15.70;99.90;;;;;;5034443;28;20413;-75
2022/08/30 01:26:18;;;;;;;5.07;2.90;;;15.60;99.90;;;;;;5035426;28;20512;-76
2022/08/30 01:28:53;;;;;;;4.03;3.63;;;15.60;99.90;;;;;;5035403;28;20436;-75
2022/08/30 01:31:22;;;;;;;5.03;2.90;;;15.60;99.90;;;;;;5035617;28;20894;-75
2022/08/30 01:33:50;;;;;;;3.43;2.50;;;15.50;99.90;;;;;;5035301;28;20907;-75
2022/08/30 01:36:20;;;;;;;4.83;2.70;;;15.50;99.90;;;;;;5035615;28;20419;-76
2022/08/30 01:38:53;;;;;;;4.23;3.13;;;15.50;99.90;;;;;;5034483;28;20452;-75
2022/08/30 01:41:23;;;;;;;3.33;2.63;;;15.40;99.90;;;;;;5035949;28;20431;-75
2022/08/30 01:43:54;;;;;;;3.40;2.83;;;15.40;99.90;;;;;;5036159;28;20427;-75
2022/08/30 01:46:24;;;;;;;3.10;2.70;;;15.40;99.90;;;;;;5035183;28;20479;-76
2022/08/30 01:48:54;;;;;;;5.03;3.20;;;15.30;99.90;;;;;;5035577;28;20537;-76
2022/08/30 01:51:24;;;;;;;4.17;3.77;;;15.30;99.90;;;;;;5035034;28;20530;-75
2022/08/30 01:53:54;;;;;;;6.80;5.80;;;15.30;99.90;;;;;;5033701;28;20511;-75
2022/08/30 01:56:22;;;;;;;5.23;4.73;;;15.30;99.90;;;;;;5034917;28;20434;-75
2022/08/30 01:58:51;;;;;;;7.07;4.27;;;15.20;99.90;;;;;;5035009;28;20458;-75
2022/08/30 02:01:21;;;;;;;5.23;4.03;;;15.20;99.90;;;;;;5033507;28;20428;-75
2022/08/30 02:03:50;;;;;;;4.40;4.00;;;15.20;99.90;;;;;;5033577;28;20800;-75
2022/08/30 02:06:20;;;;;;;4.70;3.73;;;15.10;99.90;;;;;;5034915;28;20452;-75
2022/08/30 02:08:49;;;;;;;8.33;3.47;;;15.10;99.90;;;;;;5034834;28;20557;-75
2022/08/30 02:11:19;;;;;;;6.40;3.60;;;15.10;99.90;;;;;;5034639;28;20449;-75
2022/08/30 02:13:47;;;;;;;3.97;3.33;;;15.00;99.90;;;;;;5034881;28;20807;-76
2022/08/30 02:16:18;;;;;;;5.67;3.53;;;15.00;99.90;;;;;;5035105;28;20845;-75
2022/08/30 02:18:46;;;;;;;6.10;3.87;;;15.00;99.90;;;;;;5034989;28;20542;-75
2022/08/30 02:21:15;;;;;;;5.90;3.50;;;15.00;99.90;;;;;;5034705;28;20434;-75
2022/08/30 02:23:44;;;;;;;4.27;3.87;;;14.90;99.90;;;;;;5034397;28;20435;-75
2022/08/30 02:26:13;;;;;;;3.90;3.47;;;14.90;99.90;;;;;;5034260;28;20562;-75
2022/08/30 02:28:43;;;;;;;5.33;3.90;;;14.90;99.90;;;;;;5034454;28;20884;-74
2022/08/30 02:31:18;;;;;;;5.40;3.93;;;14.80;99.90;;;;;;5034587;28;20423;-74
2022/08/30 02:33:48;;;;;;;5.60;4.30;;;14.80;99.90;;;;;;5034471;28;20823;-74
2022/08/30 02:36:17;;;;;;;4.70;3.90;;;14.80;99.90;;;;;;5032979;28;20537;-74
2022/08/30 02:38:46;;;;;;;4.10;3.70;;;14.70;99.90;;;;;;5034442;28;20510;-75
2022/08/30 02:41:14;;;;;;;4.10;3.70;;;14.70;99.90;;;;;;5034401;28;20435;-75
2022/08/30 02:43:44;;;;;;;9.13;4.00;;;14.70;99.90;;;;;;5033534;28;20465;-75
2022/08/30 02:46:12;;;;;;;4.30;3.90;;;14.70;99.90;;;;;;5033961;28;20466;-74
2022/08/30 02:48:40;;;;;;;4.43;4.03;;;14.70;99.90;;;;;;5033952;28;20450;-75
2022/08/30 02:51:11;;;;;;;4.70;3.90;;;14.60;99.90;;;;;;5033888;28;20451;-74
2022/08/30 02:53:41;;;;;;;5.20;4.07;;;14.60;99.90;;;;;;5034438;28;20423;-75
2022/08/30 02:56:09;;;;;;;5.83;3.70;;;14.60;99.90;;;;;;5034069;28;20454;-74
2022/08/30 02:58:38;;;;;;;4.70;3.90;;;14.60;99.90;;;;;;5033770;28;20469;-75
2022/08/30 03:01:10;;;;;;;4.27;3.77;;;14.50;99.90;;;;;;5033746;28;20474;-74
2022/08/30 03:03:39;;;;;;;5.80;4.30;;;14.50;99.90;;;;;;5034039;28;20393;-74
2022/08/30 03:06:09;;;;;;;5.43;4.10;;;14.50;99.90;;;;;;5033553;28;20889;-75
2022/08/30 03:08:37;;;;;;;4.90;4.37;;;14.40;99.90;;;;;;5032329;28;21014;-74
2022/08/30 03:11:06;;;;;;;5.03;4.20;;;14.40;99.90;;;;;;5034112;28;20896;-74
2022/08/30 03:13:34;;;;;;;4.60;4.10;;;14.40;99.90;;;;;;5032234;28;20505;-74
2022/08/30 03:16:03;;;;;;;5.07;4.67;;;14.30;99.90;;;;;;5032120;28;20447;-74
2022/08/30 03:18:33;;;;;;;9.40;4.27;;;14.30;99.90;;;;;;5033613;28;20455;-74
2022/08/30 03:21:01;;;;;;;4.90;4.20;;;14.30;99.90;;;;;;5032168;28;20428;-74
2022/08/30 03:23:30;;;;;;;5.03;4.20;;;14.30;99.90;;;;;;5032171;28;20518;-74
2022/08/30 03:25:58;;;;;;;6.20;4.57;;;14.30;99.90;;;;;;5033297;28;20466;-74
2022/08/30 03:28:26;;;;;;;5.60;5.00;;;14.20;99.90;;;;;;5033318;28;20538;-74
2022/08/30 03:30:54;;;;;;;4.70;4.30;;;14.20;99.90;;;;;;5031975;28;20450;-74
2022/08/30 03:33:22;;;;;;;5.83;5.23;;;14.20;99.90;;;;;;5031963;28;20455;-75
2022/08/30 03:35:52;;;;;;;4.33;3.93;;;14.20;99.90;;;;;;5033277;28;20439;-74
2022/08/30 03:38:21;;;;;;;5.73;4.67;;;14.20;99.90;;;;;;5033272;28;20954;-74
2022/08/30 03:40:49;;;;;;;4.70;4.30;;;14.20;99.90;;;;;;5033503;28;20843;-74
2022/08/30 03:43:17;;;;;;;5.67;5.03;;;14.10;99.90;;;;;;5033445;28;20513;-75
2022/08/30 03:45:46;;;;;;;5.87;4.97;;;14.10;99.90;;;;;;5033128;28;20442;-74
2022/08/30 03:48:14;;;;;;;5.13;4.53;;;14.10;99.90;;;;;;5033313;28;20434;-74
2022/08/30 03:50:42;;;;;;;4.97;3.80;;;14.10;99.90;;;;;;5033342;28;20777;-75
2022/08/30 03:53:12;;;;;;;5.50;4.10;;;14.10;99.90;;;;;;5033066;28;20449;-75
2022/08/30 03:55:40;;;;;;;5.73;3.97;;;14.00;99.90;;;;;;5034576;28;20808;-74
2022/08/30 03:58:08;;;;;;;5.83;4.53;;;14.00;99.90;;;;;;5037711;28;20534;-74
2022/08/30 04:00:37;;;;;;;5.23;4.73;;;14.00;99.90;;;;;;5037132;28;20441;-75
2022/08/30 04:03:05;;;;;;;5.13;4.63;;;14.00;99.90;;;;;;5035773;28;20537;-75
2022/08/30 04:05:33;;;;;;;4.70;4.30;;;14.00;99.90;;;;;;5035698;28;20455;-74
2022/08/30 04:08:01;;;;;;;6.20;5.60;;;14.00;99.90;;;;;;5037101;28;20494;-74
2022/08/30 04:10:31;;;;;;;5.40;5.00;;;14.00;99.90;;;;;;5039792;28;20458;-74
2022/08/30 04:12:59;;;;;;;5.00;4.60;;;13.90;99.90;;;;;;5036945;28;20797;-74
2022/08/30 04:15:27;;;;;;;5.50;5.03;;;13.90;99.90;;;;;;5037014;28;20811;-76
2022/08/30 04:17:56;;;;;;;5.40;5.00;;;13.90;99.90;;;;;;5035465;28;20964;-75
2022/08/30 04:20:24;;;;;;;5.80;5.00;;;13.90;99.90;;;;;;5035488;28;20525;-75
2022/08/30 04:22:52;;;;;;;4.47;4.07;;;13.80;99.90;;;;;;5035567;28;20447;-74
2022/08/30 04:25:20;;;;;;;5.33;4.80;;;13.80;99.90;;;;;;5035510;28;20449;-74
2022/08/30 04:27:50;;;;;;;5.30;4.63;;;13.80;99.90;;;;;;5035368;28;20462;-74
2022/08/30 04:30:18;;;;;;;6.83;4.80;;;13.80;99.90;;;;;;5035246;28;21066;-74
2022/08/30 04:32:46;;;;;;;3.87;3.50;;;13.80;99.90;;;;;;5036556;28;20557;-75
2022/08/30 04:35:15;;;;;;;5.80;4.47;;;13.80;99.90;;;;;;5036567;28;20435;-74
2022/08/30 04:37:43;;;;;;;4.53;4.13;;;13.80;99.90;;;;;;5036482;28;20526;-74
2022/08/30 04:40:12;;;;;;;4.60;4.20;;;13.80;99.90;;;;;;5035079;28;20498;-74
2022/08/30 04:42:42;;;;;;;5.70;4.70;;;13.70;99.90;;;;;;5037058;28;20462;-75
2022/08/30 04:45:14;;;;;;;6.00;4.43;;;13.70;99.90;;;;;;5037028;28;20457;-74
2022/08/30 04:47:43;;;;;;;4.83;4.37;;;13.70;99.90;;;;;;5035052;28;20463;-74
2022/08/30 04:50:15;;;;;;;5.40;4.90;;;13.70;99.90;;;;;;5034874;28;20459;-74
2022/08/30 04:52:44;;;;;;;5.17;4.67;;;13.70;99.90;;;;;;5036531;28;20431;-74
2022/08/30 04:55:12;;;;;;;5.07;4.57;;;13.70;99.90;;;;;;5036485;28;20430;-74
2022/08/30 04:57:47;;;;;;;4.37;3.53;;;13.70;99.90;;;;;;5034996;28;20457;-74
2022/08/30 05:00:19;;;;;;;5.67;5.03;;;13.70;99.90;;;;;;5036123;28;20473;-75
2022/08/30 05:02:47;;;;;;;7.03;4.63;;;13.70;99.90;;;;;;5035989;28;20901;-75
2022/08/30 05:08:01;;;;;;;5.20;4.70;;;13.70;99.90;;;;;;5035582;28;20497;-74
2022/08/30 05:10:29;;;;;;;6.57;4.83;;;13.70;99.90;;;;;;5035927;28;20439;-74
2022/08/30 05:12:58;;;;;;;5.80;5.30;;;13.70;99.90;;;;;;5036015;28;20872;-73
2022/08/30 05:15:27;;;;;;;5.53;5.03;;;13.70;99.90;;;;;;5035729;28;20794;-74
2022/08/30 05:17:56;;;;;;;5.20;4.70;;;13.70;99.90;;;;;;5035689;28;20435;-73
2022/08/30 05:20:24;;;;;;;5.47;4.97;;;13.70;99.90;;;;;;5035768;28;20443;-74
2022/08/30 05:22:52;;;;;;;7.10;5.63;;;13.80;99.90;;;;;;5035950;28;20948;-74
2022/08/30 05:25:22;;;;;;;7.93;5.57;;;13.80;99.90;;;;;;5034736;28;20538;-74
2022/08/30 05:27:51;;;;;;;5.40;4.90;;;13.80;99.90;;;;;;5035457;28;20820;-74
2022/08/30 05:30:20;;;;;;;5.40;4.87;;;13.80;99.90;;;;;;5034185;28;21054;-74
2022/08/30 05:32:50;;;;;;;5.93;4.83;;;13.80;99.90;;;;;;5035402;28;20439;-74
2022/08/30 05:35:19;;;;;;;5.70;5.20;;;13.80;99.90;;;;;;5035401;28;20433;-74
2022/08/30 05:37:52;;;;;;;7.30;5.30;;;13.90;99.90;;;;;;5034132;28;20451;-74
2022/08/30 05:40:21;;;;;;;5.40;4.87;;;13.90;99.90;;;;;;5035275;28;20963;-74
2022/08/30 05:42:49;;;;;;;5.63;5.00;;;14.00;99.90;;;;;;5033918;28;20448;-74
2022/08/30 05:45:18;;;;;;;5.83;5.20;;;14.00;99.90;;;;;;5033939;28;20454;-74
2022/08/30 05:47:47;;;;;;;5.60;4.90;;;14.10;99.90;;;;;;5035208;28;20889;-75
2022/08/30 05:50:16;;;;;;;6.10;4.97;;;14.20;99.90;;;;;;5033787;28;20517;-75
2022/08/30 05:52:45;;;;;;;5.23;4.73;;;14.20;99.90;;;;;;5033840;28;20454;-74
2022/08/30 05:55:13;;;;;;;19.73;5.07;;;14.20;99.90;;;;;;5035090;28;20980;-74
2022/08/30 05:57:41;;;;;;;5.63;4.93;;;14.30;99.90;;;;;;5035106;28;20439;-74
2022/08/30 06:00:14;;;;;;;6.13;4.07;;;14.30;99.90;;;;;;5035455;28;20450;-74
2022/08/30 06:02:42;;;;;;;4.83;3.87;;;14.40;99.90;;;;;;5033820;28;20435;-74
2022/08/30 06:05:11;;;;;;;4.77;4.33;;;14.40;99.90;;;;;;5050232;28;20454;-75
2022/08/30 06:07:43;;;;;;;4.90;4.40;;;14.50;99.90;;;;;;5034630;28;21031;-74
2022/08/30 06:10:12;;;;;;;7.70;4.30;;;14.60;99.90;;;;;;5034685;28;20553;-74
2022/08/30 06:12:42;;;;;;;4.23;3.80;;;14.60;99.90;;;;;;5034272;28;20528;-75
2022/08/30 06:15:11;;;;;;;5.73;4.20;;;14.70;99.90;;;;;;5034547;28;21042;-74
2022/08/30 06:17:39;;;;;;;4.40;4.00;;;14.70;99.90;;;;;;5032640;28;20542;-75
2022/08/30 06:20:08;;;;;;;4.90;4.40;;;14.80;99.90;;;;;;5033110;28;20988;-75
2022/08/30 06:22:37;;;;;;;6.80;5.10;;;14.80;99.90;;;;;;5034840;28;20439;-75
2022/08/30 06:25:08;;;;;;;4.33;3.73;;;14.80;99.90;;;;;;5034458;28;20438;-74
2022/08/30 06:27:36;;;;;;;5.77;4.20;;;14.90;99.90;;;;;;5049735;28;20493;-75
2022/08/30 06:30:07;;;;;;;6.57;3.77;;;14.90;99.90;;;;;;5033002;28;20462;-75
2022/08/30 06:32:35;;;;;;;4.30;3.80;;;14.90;99.90;;;;;;5033066;28;20677;-75
2022/08/30 06:35:03;;;;;;;6.03;4.27;;;15.00;99.90;;;;;;5034249;28;20927;-75
2022/08/30 06:37:32;;;;;;;4.60;4.10;;;15.00;99.90;;;;;;5034265;28;20445;-73
2022/08/30 06:40:02;;;;;;;5.13;4.07;;;15.10;99.90;;;;;;5034316;28;20460;-74
2022/08/30 06:42:33;;;;;;;6.20;4.20;;;15.10;99.90;;;;;;5035255;28;20441;-74
2022/08/30 06:45:02;;;;;;;5.73;4.60;;;15.10;99.90;;;;;;5034727;28;20428;-74
2022/08/30 06:47:39;;;;;;;5.40;4.30;;;15.10;99.90;;;;;;5033369;28;21073;-74
2022/08/30 06:50:09;;;;;;;5.93;4.10;;;15.20;99.90;;;;;;5034392;28;20480;-73
2022/08/30 06:52:40;;;;;;;4.60;4.03;;;15.20;99.90;;;;;;5034628;28;20481;-73
2022/08/30 06:55:10;;;;;;;5.27;3.83;;;15.20;99.90;;;;;;5032690;28;20484;-73
2022/08/30 06:57:39;;;;;;;6.00;3.70;;;15.20;99.90;;;;;;5034135;28;20513;-74
2022/08/30 07:00:10;;;;;;;6.33;4.50;;;15.30;99.90;;;;;;5032567;28;20466;-73
2022/08/30 07:02:39;;;;;;;5.77;3.87;;;15.30;99.90;;;;;;5033145;28;20409;-75
2022/08/30 07:05:10;;;;;;;4.60;4.13;;;15.30;99.90;;;;;;5032660;28;20464;-75
2022/08/30 07:07:43;;;;;;;4.40;4.00;;;15.30;99.90;;;;;;5033700;28;20429;-75
2022/08/30 07:10:13;;;;;;;4.90;3.47;;;15.30;99.90;;;;;;5032426;28;20465;-74
2022/08/30 07:12:42;;;;;;;6.43;4.00;;;15.30;99.90;;;;;;5033589;28;20422;-73
2022/08/30 07:15:11;;;;;;;4.03;3.63;;;15.40;99.90;;;;;;5033564;28;20983;-74
2022/08/30 07:20:25;;;;;;;7.33;3.57;;;15.50;99.90;;;;;;5035326;28;20860;-74
2022/08/30 07:22:53;;;;;;;4.97;3.83;;;15.50;99.90;;;;;;5033231;28;20422;-74
2022/08/30 07:25:21;;;;;;;6.30;3.83;;;15.60;99.90;;;;;;5033735;28;20773;-75
2022/08/30 07:27:51;;;;;;;5.13;3.83;;;15.60;99.90;;;;;;5033859;28;20524;-75
2022/08/30 07:30:20;;;;;;;4.40;4.00;;;15.70;99.90;;;;;;5033685;28;20436;-75
2022/08/30 07:32:48;;;;;;;4.93;3.37;;;15.70;99.90;;;;;;5032233;28;20867;-75
2022/08/30 07:35:17;;;;;;;4.17;3.33;;;15.80;99.90;;;;;;5033744;28;20520;-75
2022/08/30 07:37:45;;;;;;;10.20;4.67;;;15.90;99.90;;;;;;5032056;28;21105;-75
2022/08/30 07:40:13;;;;;;;5.60;3.60;;;15.90;99.90;;;;;;5033240;28;20462;-74
2022/08/30 07:42:41;;;;;;;3.90;3.23;;;16.00;99.90;;;;;;5033150;28;20490;-75
2022/08/30 07:45:12;;;;;;;6.10;4.10;;;16.20;99.90;;;;;;5032031;28;20450;-74
2022/08/30 07:47:41;;;;;;;4.30;3.63;;;16.30;99.90;;;;;;5033640;28;20493;-74
2022/08/30 07:50:09;;;;;;;3.97;3.37;;;16.30;99.90;;;;;;5033392;28;20826;-74
2022/08/30 07:52:38;;;;;;;4.43;2.97;;;16.40;99.90;;;;;;5033219;28;20410;-75
2022/08/30 07:55:07;;;;;;;4.53;3.13;;;16.50;99.90;;;;;;5033209;28;20434;-74
2022/08/30 07:57:35;;;;;;;4.70;3.20;;;16.60;99.90;;;;;;5033111;28;20409;-74
2022/08/30 08:00:05;;;;;;;4.93;3.90;;;16.70;99.90;;;;;;5033344;28;20524;-75
2022/08/30 08:02:41;;;;;;;6.70;4.10;;;16.70;99.90;;;;;;5033198;28;20809;-75
2022/08/30 08:05:10;;;;;;;6.33;3.07;;;16.70;99.90;;;;;;5033433;28;20786;-75
2022/08/30 08:07:44;;;;;;;5.03;3.20;;;16.80;99.90;;;;;;5033168;28;20465;-74
2022/08/30 08:10:12;;;;;;;4.80;2.63;;;16.80;99.90;;;;;;5033149;28;20545;-74
2022/08/30 08:12:41;;;;;;;5.27;3.77;;;16.80;99.90;;;;;;5033130;28;20442;-74
2022/08/30 08:15:10;;;;;;;4.13;3.27;;;16.90;99.90;;;;;;5032903;28;21057;-74
2022/08/30 08:17:39;;;;;;;4.53;3.27;;;16.90;99.90;;;;;;5032996;28;20428;-76
2022/08/30 08:20:08;;;;;;;5.60;3.30;;;17.10;99.90;;;;;;5032704;28;20436;-74
2022/08/30 08:22:36;;;;;;;5.23;3.87;;;17.10;99.90;;;;;;5033012;28;20445;-74
2022/08/30 08:25:08;;;;;;;8.13;4.00;;;17.40;99.90;;;;;;5031754;28;20512;-74
2022/08/30 08:27:36;;;;;;;5.53;2.90;;;17.60;99.90;;;;;;5031825;28;20421;-74
2022/08/30 08:30:05;;;;;;;4.27;2.67;;;17.70;99.90;;;;;;5032862;28;20456;-74
2022/08/30 08:32:33;;;;;;;5.67;3.23;;;17.80;99.90;;;;;;5033265;28;20872;-74
2022/08/30 08:35:04;;;;;;;3.70;2.77;;;18.00;99.90;;;;;;5031858;28;20641;-75
2022/08/30 08:37:32;;;;;;;4.77;3.00;;;18.30;99.90;;;;;;5032860;28;20465;-75
2022/08/30 08:40:00;;;;;;;3.93;2.70;;;18.40;99.90;;;;;;5032742;28;20463;-75
2022/08/30 08:42:41;;;;;;;4.23;2.60;;;18.50;99.90;;;;;;5034009;28;20465;-74
2022/08/30 08:45:14;;;;;;;4.00;2.70;;;18.70;99.90;;;;;;5035182;28;20533;-75
2022/08/30 08:47:58;;;;;;;5.60;2.93;;;18.80;99.90;;;;;;5036837;28;20423;-75
2022/08/30 08:50:32;;;;;;;3.80;2.37;;;19.00;99.90;;;;;;5035014;28;20427;-75
2022/08/30 08:56:15;;;;;;;3.57;2.83;;;19.20;99.90;;;;;;5034900;28;20446;-75
2022/08/30 08:58:45;;;;;;;4.77;3.20;;;19.20;99.90;;;;;;5034170;28;20473;-76
2022/08/30 09:01:15;;;;;;;4.00;3.00;;;19.30;99.90;;;;;;5034320;28;20459;-75
2022/08/30 09:03:45;;;;;;;6.17;3.10;;;19.30;99.90;;;;;;5034650;28;20510;-76
2022/08/30 09:06:31;;;;;;;4.97;2.50;;;19.40;99.90;;;;;;5038216;28;20449;-76
2022/08/30 09:08:59;;;;;;;3.90;3.03;;;19.40;99.90;;;;;;5036004;28;20967;-75
2022/08/30 09:11:32;;;;;;;6.03;3.10;;;19.50;99.90;;;;;;5034667;28;20530;-74
2022/08/30 09:14:00;;;;;;;5.60;2.80;;;19.50;99.90;;;;;;5036033;28;20530;-75
2022/08/30 09:17:00;;;;;;;4.57;3.20;;;19.60;99.90;;;;;;5034504;28;20439;-76
2022/08/30 09:19:38;;;;;;;5.50;2.93;;;19.70;99.90;;;;;;5035981;28;20824;-75
2022/08/30 09:22:25;;;;;;;3.80;2.70;;;19.90;99.90;;;;;;5035997;28;20935;-77
2022/08/30 09:24:59;;;;;;;6.43;3.60;;;20.00;99.90;;;;;;5035619;28;20517;-76
2022/08/30 09:27:31;;;;;;;3.57;3.00;;;20.10;99.90;;;;;;5035973;28;20423;-75
2022/08/30 09:30:03;;;;;;;3.37;2.53;;;20.20;99.90;;;;;;5034159;28;20466;-76
2022/08/30 09:32:36;;;;;;;4.37;2.67;;;20.30;99.90;;;;;;5034314;28;20812;-75
2022/08/30 09:35:08;;;;;;;3.47;2.70;;;20.40;99.90;;;;;;5035869;28;20423;-75
2022/08/30 09:37:45;;;;;;;5.20;3.33;;;20.50;99.90;;;;;;5035680;28;20422;-75
2022/08/30 09:40:24;;;;;;;6.30;2.73;;;20.60;99.90;;;;;;5035880;28;20458;-76
2022/08/30 09:43:07;;;;;;;5.40;2.90;;;20.70;99.90;;;;;;5040199;28;20423;-76
2022/08/30 09:45:38;;;;;;;3.53;2.90;;;20.80;99.90;;;;;;5038629;28;20485;-76
2022/08/30 09:48:28;;;;;;;4.73;3.47;;;20.90;99.90;;;;;;5037227;28;20431;-77
2022/08/30 09:51:15;;;;;;;4.60;3.30;;;21.00;99.90;;;;;;5034240;28;20466;-75
2022/08/30 09:53:56;;;;;;;4.77;3.10;;;21.10;99.90;;;;;;5034625;28;20423;-75
2022/08/30 09:56:53;;;;;;;5.20;3.30;;;21.10;99.90;;;;;;5035151;28;20808;-75
2022/08/30 09:59:36;;;;;;;4.50;3.13;;;21.10;99.90;;;;;;5035665;28;20504;-75
2022/08/30 10:02:20;;;;;;;5.60;2.93;;;21.10;99.90;;;;;;5033813;28;20453;-75
2022/08/30 10:04:56;;;;;;;3.50;3.00;;;21.00;99.90;;;;;;5033690;28;20446;-75
2022/08/30 10:07:30;;;;;;;4.50;3.17;;;21.10;99.90;;;;;;5035090;28;20419;-75
2022/08/30 10:10:05;;;;;;;5.67;3.57;;;21.20;99.90;;;;;;5035038;28;20475;-75
2022/08/30 10:12:42;;;;;;;4.73;3.03;;;21.20;99.90;;;;;;5035111;28;20423;-76
2022/08/30 10:15:16;;;;;;;3.47;3.17;;;21.20;99.90;;;;;;5033640;28;20471;-75
2022/08/30 10:17:51;;;;;;;5.37;3.60;;;21.20;99.90;;;;;;5033534;28;20913;-75
2022/08/30 10:20:26;;;;;;;3.50;3.20;;;21.20;99.90;;;;;;5033443;28;20471;-75
2022/08/30 10:23:00;;;;;;;4.27;3.40;;;21.20;99.90;;;;;;5034860;28;20419;-75
2022/08/30 10:25:34;;;;;;;3.47;3.13;;;21.20;99.90;;;;;;5034802;28;20438;-75
2022/08/30 10:28:09;;;;;;;4.83;3.00;;;21.20;99.90;;;;;;5034504;28;20456;-75
2022/08/30 10:30:42;;;;;;;4.57;2.67;;;21.20;99.90;;;;;;5033172;28;20467;-75
2022/08/30 10:33:14;;;;;;;3.73;2.67;;;21.30;99.90;;;;;;5034412;28;20908;-76
2022/08/30 10:35:48;;;;;;;4.50;2.70;;;21.40;99.90;;;;;;5034603;28;20885;-76
2022/08/30 10:38:22;;;;;;;3.50;3.20;;;21.50;99.90;;;;;;5034721;28;20514;-76
2022/08/30 10:41:15;;;;;;;2.87;2.30;;;21.70;99.90;;;;;;5035077;28;20446;-75
2022/08/30 10:43:52;;;;;;;3.40;2.27;;;21.70;99.90;;;;;;5034696;28;20439;-75
2022/08/30 10:46:27;;;;;;;4.27;2.50;;;21.70;99.90;;;;;;5034121;28;20461;-75
2022/08/30 10:48:58;;;;;;;2.90;2.13;;;21.70;99.90;;;;;;5034205;28;21056;-75
2022/08/30 10:51:32;;;;;;;3.00;2.20;;;21.60;99.90;;;;;;5032629;28;20955;-75
2022/08/30 10:54:10;;;;;;;2.33;2.13;;;21.60;99.90;;;;;;5034079;28;20434;-75
2022/08/30 10:56:51;;;;;;;2.43;2.17;;;21.60;99.90;;;;;;5034491;28;20430;-75
2022/08/30 10:59:20;;;;;;;3.90;2.90;;;21.60;99.90;;;;;;5032654;28;20470;-75
2022/08/30 11:02:18;;;;;;;3.93;2.90;;;21.60;99.90;;;;;;5032595;28;20490;-75
2022/08/30 11:05:27;;;;;;;4.60;2.50;;;21.60;99.90;;;;;;5034070;28;20525;-76
2022/08/30 11:08:06;;;;;;;3.00;2.40;;;21.70;99.90;;;;;;5033923;28;20787;-75
2022/08/30 11:10:56;;;;;;;2.97;2.10;;;21.80;99.90;;;;;;5033887;28;20463;-76
2022/08/30 11:13:28;;;;;;;4.73;2.33;;;21.80;99.90;;;;;;5032661;28;21024;-75
2022/08/30 11:16:02;;;;;;;3.17;2.00;;;21.90;99.90;;;;;;5032560;28;20781;-74
2022/08/30 11:18:40;;;;;;;4.73;2.50;;;21.90;99.90;;;;;;5032355;28;20463;-75
2022/08/30 11:21:26;;;;;;;3.47;2.20;;;22.00;99.90;;;;;;5034002;28;20419;-75
2022/08/30 11:24:04;;;;;;;2.53;1.80;;;22.00;99.90;;;;;;5033661;28;20427;-75
2022/08/30 11:27:00;;;;;;;2.40;1.80;;;22.10;99.90;;;;;;5033941;28;20415;-75
2022/08/30 11:29:36;;;;;;;3.10;2.13;;;22.10;99.80;;;;;;5032143;28;20565;-75
2022/08/30 11:32:45;;;;;;;2.90;1.73;;;22.10;99.70;;;;;;5032247;28;20431;-75
2022/08/30 11:35:38;;;;;;;2.90;1.50;;;22.20;99.40;;;;;;5033478;28;20469;-76
2022/08/30 11:38:20;;;;;;;3.43;1.90;;;22.10;99.30;;;;;;5033579;28;20901;-76
2022/08/30 11:41:06;;;;;;;3.13;1.70;;;22.20;99.40;;;;;;5033260;28;20435;-76
2022/08/30 11:43:54;;;;;;;3.27;1.70;;;22.20;99.30;;;;;;5032154;28;20880;-76
2022/08/30 11:46:38;;;;;;;2.00;1.30;;;22.20;99.20;;;;;;5033570;28;20438;-75
2022/08/30 11:49:36;;;;;;;2.20;1.73;;;22.20;99.10;;;;;;5033547;28;20455;-76
2022/08/30 11:52:34;;;;;;;2.87;2.17;;;22.20;99.10;;;;;;5033815;28;20425;-76
2022/08/30 11:55:42;;;;;;;4.50;1.90;;;22.20;99.10;;;;;;5029563;28;20489;-74
2022/08/30 11:58:22;;;;;;;2.70;1.40;;;22.20;99.00;;;;;;5017383;28;20490;-75
2022/08/30 12:01:19;;;;;;;2.93;1.70;;;22.20;99.00;;;;;;5033502;28;20455;-75
2022/08/30 12:04:12;;;;;;;2.37;1.40;;;22.20;98.90;;;;;;5032000;28;20531;-75
2022/08/30 12:06:49;;;;;;;5.20;2.23;;;22.20;98.90;;;;;;5033653;28;20469;-75
2022/08/30 12:10:00;;;;;;;3.10;1.80;;;22.20;98.80;;;;;;5033098;28;20455;-76
2022/08/30 12:12:55;;;;;;;2.50;1.67;;;22.20;98.60;;;;;;5033416;28;20800;-75
2022/08/30 12:15:56;;;;;;;2.47;1.40;;;22.30;98.50;;;;;;5033027;28;20537;-75
2022/08/30 12:18:32;;;;;;;2.00;1.30;;;22.30;98.30;;;;;;5034626;28;20474;-75
2022/08/30 12:21:12;;;;;;;3.33;1.63;;;22.40;98.60;;;;;;5035598;28;20940;-75
2022/08/30 12:23:48;;;;;;;2.97;1.40;;;22.40;98.10;;;;;;5037080;28;20454;-76
2022/08/30 12:26:29;;;;;;;2.40;1.30;;;22.40;98.30;;;;;;5037192;28;20427;-76
2022/08/30 12:29:14;;;;;;;2.77;1.47;;;22.40;98.20;;;;;;5037271;28;20454;-76
2022/08/30 12:31:46;;;;;;;2.80;1.50;;;22.50;97.90;;;;;;5035375;28;20518;-75
2022/08/30 12:34:22;;;;;;;4.70;1.80;;;22.50;97.90;;;;;;5036904;28;20825;-74
2022/08/30 12:36:57;;;;;;;2.20;1.60;;;22.60;97.80;;;;;;5035348;28;20838;-75
2022/08/30 12:39:28;;;;;;;1.87;1.23;;;22.60;97.80;;;;;;5036692;28;20458;-75
2022/08/30 12:41:57;;;;;;;1.80;1.33;;;22.70;97.70;;;;;;5036788;28;20462;-77
2022/08/30 12:44:28;;;;;;;2.07;1.40;;;22.70;97.60;;;;;;5036386;28;20450;-75
2022/08/30 12:47:01;;;;;;;1.90;1.23;;;22.70;97.50;;;;;;5037023;28;20421;-74
2022/08/30 12:49:34;;;;;;;2.50;1.30;;;22.70;97.20;;;;;;5037090;28;20920;-75
2022/08/30 12:52:20;;;;;;;2.17;1.23;;;22.80;97.10;;;;;;5036510;28;20893;-75
2022/08/30 12:54:48;;;;;;;2.53;1.20;;;22.80;97.00;;;;;;5036527;28;20495;-75
2022/08/30 12:57:36;;;;;;;2.33;1.27;;;22.70;97.00;;;;;;5036706;28;20797;-75
2022/08/30 13:00:07;;;;;;;2.30;1.40;;;22.70;96.80;;;;;;5036028;28;20463;-75
2022/08/30 13:02:44;;;;;;;2.43;1.93;;;22.70;96.90;;;;;;5036386;28;20784;-75
2022/08/30 13:05:35;;;;;;;3.50;1.40;;;22.70;97.10;;;;;;5034768;28;20920;-76
2022/08/30 13:08:20;;;;;;;2.43;1.40;;;22.80;96.90;;;;;;5035917;28;20937;-76
2022/08/30 13:10:56;;;;;;;2.63;1.40;;;22.90;96.90;;;;;;5034508;28;20463;-75
2022/08/30 13:13:34;;;;;;;2.20;1.33;;;23.00;96.80;;;;;;5036129;28;20908;-76
2022/08/30 13:16:23;;;;;;;2.63;1.50;;;23.10;96.70;;;;;;5035794;28;20459;-74
2022/08/30 13:18:55;;;;;;;1.80;1.20;;;23.20;96.60;;;;;;5035793;28;20458;-76
2022/08/30 13:21:29;;;;;;;2.57;1.47;;;23.30;96.60;;;;;;5034643;28;20431;-76
2022/08/30 13:24:01;;;;;;;2.53;1.37;;;23.40;96.50;;;;;;5034864;28;20436;-76
2022/08/30 13:26:32;;;;;;;2.60;1.23;;;23.40;96.70;;;;;;5035187;28;20449;-77